createdAt,value
2024-05-09T00:00:42.827Z,9.30
2024-05-09T00:03:11.352Z,9.20
2024-05-09T00:05:41.074Z,9.20
2024-05-09T00:08:09.740Z,9.30
2024-05-09T00:10:39.106Z,9.30
2024-05-09T00:13:08.107Z,9.30
2024-05-09T00:15:36.158Z,9.40
2024-05-09T00:18:05.317Z,9.40
2024-05-09T00:20:38.266Z,9.30
2024-05-09T00:23:12.597Z,9.30
2024-05-09T00:25:44.132Z,9.20
2024-05-09T00:28:12.180Z,9.20
2024-05-09T00:30:39.231Z,9.20
2024-05-09T00:33:07.583Z,9.10
2024-05-09T00:35:35.963Z,9.00
2024-05-09T00:38:03.172Z,9.00
2024-05-09T00:40:41.711Z,8.90
2024-05-09T00:43:14.569Z,8.80
2024-05-09T00:45:42.781Z,8.70
2024-05-09T00:48:13.982Z,8.60
2024-05-09T00:50:45.401Z,8.60
2024-05-09T00:53:15.526Z,8.50
2024-05-09T00:55:43.228Z,8.40
2024-05-09T00:58:12.478Z,8.40
2024-05-09T01:00:41.467Z,8.50
2024-05-09T01:03:11.529Z,8.60
2024-05-09T01:05:40.848Z,8.60
2024-05-09T01:08:09.031Z,8.60
2024-05-09T01:10:37.112Z,8.60
2024-05-09T01:13:07.595Z,8.60
2024-05-09T01:15:35.745Z,8.50
2024-05-09T01:18:09.576Z,8.50
2024-05-09T01:20:42.010Z,8.50
2024-05-09T01:23:12.437Z,8.50
2024-05-09T01:25:40.163Z,8.50
2024-05-09T01:28:07.609Z,8.60
2024-05-09T01:30:37.017Z,8.60
2024-05-09T01:33:08.083Z,8.50
2024-05-09T01:35:36.976Z,8.50
2024-05-09T01:38:04.312Z,8.40
2024-05-09T01:40:38.338Z,8.30
2024-05-09T01:43:11.228Z,8.20
2024-05-09T01:45:42.847Z,8.20
2024-05-09T01:48:11.112Z,8.10
2024-05-09T01:50:41.711Z,8.10
2024-05-09T01:53:11.605Z,8.10
2024-05-09T01:55:39.083Z,8.10
2024-05-09T01:58:06.159Z,8.10
2024-05-09T02:00:39.255Z,8.10
2024-05-09T02:03:12.649Z,8.20
2024-05-09T02:05:43.244Z,8.20
2024-05-09T02:08:18.289Z,8.20
2024-05-09T02:10:47.485Z,8.20
2024-05-09T02:13:15.603Z,8.20
2024-05-09T02:15:42.862Z,8.20
2024-05-09T02:18:10.596Z,8.30
2024-05-09T02:20:39.588Z,8.30
2024-05-09T02:23:08.152Z,8.40
2024-05-09T02:25:35.203Z,8.30
2024-05-09T02:28:02.026Z,8.30
2024-05-09T02:30:38.263Z,8.20
2024-05-09T02:33:09.689Z,8.20
2024-05-09T02:35:38.451Z,8.10
2024-05-09T02:38:05.611Z,8.10
2024-05-09T02:40:36.978Z,8.00
2024-05-09T02:43:06.922Z,8.00
2024-05-09T02:45:34.014Z,7.90
2024-05-09T02:48:01.862Z,7.90
2024-05-09T02:50:34.745Z,7.90
2024-05-09T02:53:08.150Z,7.80
2024-05-09T02:55:35.558Z,7.80
2024-05-09T02:58:02.735Z,7.80
2024-05-09T03:00:37.929Z,7.80
2024-05-09T03:03:09.850Z,7.80
2024-05-09T03:05:38.891Z,7.70
2024-05-09T03:08:06.236Z,7.70
2024-05-09T03:10:36.567Z,7.70
2024-05-09T03:13:13.520Z,7.70
2024-05-09T03:15:42.514Z,7.70
2024-05-09T03:18:10.052Z,7.70
2024-05-09T03:20:38.075Z,7.70
2024-05-09T03:23:07.810Z,7.70
2024-05-09T03:25:35.901Z,7.70
2024-05-09T03:28:03.346Z,7.70
2024-05-09T03:30:39.155Z,7.80
2024-05-09T03:33:20.200Z,7.80
2024-05-09T03:35:49.039Z,7.80
2024-05-09T03:38:16.828Z,7.90
2024-05-09T03:40:51.040Z,7.90
2024-05-09T03:43:19.517Z,7.80
2024-05-09T03:45:49.740Z,7.80
2024-05-09T03:48:17.043Z,7.80
2024-05-09T03:50:44.264Z,7.80
2024-05-09T03:53:14.455Z,7.80
2024-05-09T03:55:41.649Z,7.80
2024-05-09T03:58:08.642Z,7.80
2024-05-09T04:00:39.129Z,7.80
2024-05-09T04:03:10.288Z,7.80
2024-05-09T04:05:44.208Z,7.80
2024-05-09T04:08:12.907Z,7.80
2024-05-09T04:10:40.911Z,7.80
2024-05-09T04:13:07.839Z,7.80
2024-05-09T04:15:35.617Z,7.80
2024-05-09T04:18:02.971Z,7.90
2024-05-09T04:20:38.343Z,7.90
2024-05-09T04:23:10.695Z,7.90
2024-05-09T04:25:37.963Z,8.00
2024-05-09T04:28:05.650Z,8.00
2024-05-09T04:30:38.546Z,8.10
2024-05-09T04:33:11.146Z,8.10
2024-05-09T04:35:41.934Z,8.20
2024-05-09T04:38:09.216Z,8.30
2024-05-09T04:40:37.426Z,8.40
2024-05-09T04:43:06.375Z,8.40
2024-05-09T04:45:33.593Z,8.50
2024-05-09T04:48:01.192Z,8.60
2024-05-09T04:50:36.175Z,8.70
2024-05-09T04:53:07.810Z,8.80
2024-05-09T04:55:36.329Z,8.90
2024-05-09T04:58:03.436Z,9.00
2024-05-09T05:00:36.498Z,9.10
2024-05-09T05:03:13.751Z,9.20
2024-05-09T05:05:44.497Z,9.30
2024-05-09T05:08:13.700Z,9.50
2024-05-09T05:10:43.727Z,9.60
2024-05-09T05:13:20.780Z,9.70
2024-05-09T05:15:52.092Z,9.80
2024-05-09T05:18:19.659Z,10.00
2024-05-09T05:20:47.388Z,10.10
2024-05-09T05:23:16.434Z,10.20
2024-05-09T05:25:44.079Z,10.30
2024-05-09T05:28:11.282Z,10.50
2024-05-09T05:30:38.748Z,10.60
2024-05-09T05:33:07.622Z,10.70
2024-05-09T05:35:34.999Z,10.80
2024-05-09T05:38:06.546Z,11.00
2024-05-09T05:40:37.050Z,11.10
2024-05-09T05:43:07.306Z,11.30
2024-05-09T05:45:34.329Z,11.40
2024-05-09T05:48:04.216Z,11.50
2024-05-09T05:50:36.024Z,11.70
2024-05-09T05:53:07.959Z,11.70
2024-05-09T05:55:36.675Z,11.70
2024-05-09T05:58:03.833Z,11.80
2024-05-09T06:00:38.082Z,12.00
2024-05-09T06:03:08.640Z,12.00
2024-05-09T06:05:37.129Z,12.10
2024-05-09T06:08:04.766Z,12.10
2024-05-09T06:10:38.100Z,12.30
2024-05-09T06:13:07.987Z,12.40
2024-05-09T06:15:35.095Z,12.50
2024-05-09T06:18:04.633Z,12.60
2024-05-09T06:20:36.173Z,12.70
2024-05-09T06:23:09.034Z,12.70
2024-05-09T06:25:36.916Z,12.90
2024-05-09T06:28:05.329Z,13.00
2024-05-09T06:30:38.863Z,13.10
2024-05-09T06:33:12.901Z,13.30
2024-05-09T06:35:42.133Z,13.50
2024-05-09T06:38:09.736Z,13.60
2024-05-09T06:40:41.290Z,13.70
2024-05-09T06:43:18.334Z,13.80
2024-05-09T06:45:52.533Z,13.90
2024-05-09T06:48:20.652Z,14.00
2024-05-09T06:50:48.298Z,14.20
2024-05-09T06:53:16.541Z,14.30
2024-05-09T06:55:43.547Z,14.50
2024-05-09T06:58:10.445Z,14.70
2024-05-09T07:00:40.080Z,14.70
2024-05-09T07:03:14.835Z,14.70
2024-05-09T07:05:44.809Z,14.80
2024-05-09T07:08:13.555Z,14.90
2024-05-09T07:10:40.633Z,15.00
2024-05-09T07:13:12.217Z,15.20
2024-05-09T07:15:40.291Z,15.30
2024-05-09T07:18:16.893Z,15.30
2024-05-09T07:20:45.874Z,15.40
2024-05-09T07:23:13.378Z,15.60
2024-05-09T07:25:41.377Z,15.80
2024-05-09T07:28:16.591Z,15.90
2024-05-09T07:30:44.068Z,16.10
2024-05-09T07:33:23.065Z,16.10
2024-05-09T07:35:51.760Z,16.30
2024-05-09T07:38:18.983Z,16.40
2024-05-09T07:40:46.472Z,16.60
2024-05-09T07:43:14.611Z,16.70
2024-05-09T07:45:50.786Z,16.80
2024-05-09T07:52:37.174Z,17.10
2024-05-09T07:53:47.225Z,17.30
2024-05-09T07:56:18.301Z,17.40
2024-05-09T07:58:46.226Z,17.50
2024-05-09T08:01:13.251Z,17.60
2024-05-09T08:03:40.436Z,17.80
2024-05-09T08:06:07.505Z,17.90
2024-05-09T08:08:34.399Z,18.10
2024-05-09T08:11:02.610Z,18.40
2024-05-09T08:13:29.654Z,18.70
2024-05-09T08:15:56.659Z,19.00
2024-05-09T08:18:24.103Z,19.50
2024-05-09T08:20:52.113Z,20.00
2024-05-09T08:23:19.204Z,20.80
2024-05-09T08:25:46.106Z,21.50
2024-05-09T08:28:13.172Z,21.90
2024-05-09T08:30:40.489Z,22.60
2024-05-09T08:33:08.029Z,23.20
2024-05-09T08:35:35.781Z,23.70
2024-05-09T08:38:04.248Z,23.70
2024-05-09T08:40:36.383Z,23.60
2024-05-09T08:43:10.830Z,24.10
2024-05-09T08:45:44.553Z,23.90
2024-05-09T08:48:15.416Z,24.10
2024-05-09T08:50:44.769Z,24.70
2024-05-09T08:53:12.807Z,25.20
2024-05-09T08:55:43.281Z,25.80
2024-05-09T08:58:20.453Z,25.40
2024-05-09T09:00:48.082Z,25.60
2024-05-09T09:03:19.621Z,25.80
2024-05-09T09:05:57.630Z,26.10
2024-05-09T09:08:26.271Z,26.40
2024-05-09T09:10:55.638Z,26.90
2024-05-09T09:13:22.692Z,27.30
2024-05-09T09:15:50.536Z,27.40
2024-05-09T09:18:18.390Z,27.60
2024-05-09T09:20:45.790Z,27.50
2024-05-09T09:23:12.808Z,26.90
2024-05-09T09:25:40.905Z,27.10
2024-05-09T09:28:08.607Z,26.90
2024-05-09T09:30:43.007Z,26.30
2024-05-09T09:33:11.422Z,26.10
2024-05-09T09:35:40.728Z,25.90
2024-05-09T09:38:10.643Z,25.90
2024-05-09T09:40:46.671Z,26.20
2024-05-09T09:43:22.076Z,26.50
2024-05-09T09:45:52.903Z,26.60
2024-05-09T09:48:21.452Z,26.30
2024-05-09T09:50:51.219Z,26.10
2024-05-09T09:53:21.984Z,25.60
2024-05-09T09:55:49.565Z,26.30
2024-05-09T09:58:20.268Z,27.10
2024-05-09T10:00:47.782Z,27.20
2024-05-09T10:03:15.005Z,27.40
2024-05-09T10:05:47.036Z,27.60
2024-05-09T10:08:16.175Z,27.20
2024-05-09T10:10:47.728Z,27.20
2024-05-09T10:13:15.477Z,27.10
2024-05-09T10:15:53.623Z,27.60
2024-05-09T10:18:28.311Z,28.30
2024-05-09T10:20:57.607Z,28.70
2024-05-09T10:23:29.422Z,28.50
2024-05-09T10:25:56.433Z,28.60
2024-05-09T10:28:34.055Z,29.00
2024-05-09T10:31:08.905Z,28.70
2024-05-09T10:33:51.352Z,29.60
2024-05-09T10:36:21.375Z,30.40
2024-05-09T10:38:53.538Z,30.00
2024-05-09T10:41:21.774Z,30.50
2024-05-09T10:43:49.258Z,30.60
2024-05-09T10:46:16.732Z,30.50
2024-05-09T10:48:44.703Z,30.50
2024-05-09T10:51:13.098Z,30.70
2024-05-09T10:53:47.903Z,30.90
2024-05-09T10:56:15.290Z,31.20
2024-05-09T10:58:42.346Z,31.30
2024-05-09T11:01:10.407Z,31.50
2024-05-09T11:03:38.162Z,30.90
2024-05-09T11:06:06.480Z,31.30
2024-05-09T11:08:34.805Z,31.30
2024-05-09T11:11:05.785Z,31.60
2024-05-09T11:13:34.931Z,31.60
2024-05-09T11:16:03.217Z,31.60
2024-05-09T11:18:35.269Z,31.50
2024-05-09T11:21:12.693Z,31.30
2024-05-09T11:23:40.347Z,31.80
2024-05-09T11:26:07.488Z,31.80
2024-05-09T11:28:35.923Z,30.20
2024-05-09T11:31:08.224Z,29.00
2024-05-09T11:33:45.728Z,27.90
2024-05-09T11:36:13.258Z,27.40
2024-05-09T11:38:40.618Z,27.30
2024-05-09T11:41:07.672Z,27.70
2024-05-09T11:43:34.690Z,28.00
2024-05-09T11:46:03.740Z,27.70
2024-05-09T11:48:31.684Z,26.90
2024-05-09T11:50:59.094Z,26.50
2024-05-09T11:53:25.987Z,26.40
2024-05-09T11:55:53.076Z,27.30
2024-05-09T11:58:21.476Z,29.20
2024-05-09T12:00:48.663Z,29.70
2024-05-09T12:03:20.724Z,28.70
2024-05-09T12:05:47.850Z,28.20
2024-05-09T12:08:15.067Z,27.50
2024-05-09T12:10:42.173Z,26.60
2024-05-09T12:13:09.283Z,26.90
2024-05-09T12:15:38.190Z,28.10
2024-05-09T12:18:07.578Z,29.70
2024-05-09T12:20:38.678Z,31.70
2024-05-09T12:23:10.025Z,33.50
2024-05-09T12:25:39.483Z,34.10
2024-05-09T12:28:10.117Z,34.40
2024-05-09T12:30:40.250Z,33.80
2024-05-09T12:33:12.706Z,33.00
2024-05-09T12:35:43.344Z,32.50
2024-05-09T12:38:13.442Z,32.00
2024-05-09T12:40:40.581Z,32.90
2024-05-09T12:43:09.107Z,33.40
2024-05-09T12:45:37.733Z,33.90
2024-05-09T12:48:08.289Z,33.10
2024-05-09T12:50:37.011Z,31.50
2024-05-09T12:53:05.171Z,30.10
2024-05-09T12:55:40.867Z,29.80
2024-05-09T12:58:16.188Z,30.40
2024-05-09T13:00:44.121Z,30.30
2024-05-09T13:03:11.425Z,30.10
2024-05-09T13:05:41.012Z,29.10
2024-05-09T13:08:08.225Z,28.20
2024-05-09T13:10:35.344Z,27.40
2024-05-09T13:13:02.480Z,27.00
2024-05-09T13:15:34.699Z,27.90
2024-05-09T13:18:03.398Z,29.70
2024-05-09T13:20:34.184Z,31.20
2024-05-09T13:23:04.392Z,32.00
2024-05-09T13:25:32.079Z,33.10
2024-05-09T13:27:59.163Z,33.60
2024-05-09T13:30:34.686Z,34.20
2024-05-09T13:33:07.263Z,34.50
2024-05-09T13:38:20.343Z,35.30
2024-05-09T13:40:49.039Z,35.50
2024-05-09T13:43:23.309Z,36.10
2024-05-09T13:45:55.585Z,35.30
2024-05-09T13:48:22.889Z,35.40
2024-05-09T13:50:49.998Z,34.90
2024-05-09T13:53:16.971Z,33.00
2024-05-09T13:55:44.369Z,30.70
2024-05-09T13:58:12.136Z,29.40
2024-05-09T14:00:46.227Z,28.00
2024-05-09T14:03:16.523Z,28.40
2024-05-09T14:05:45.134Z,30.10
2024-05-09T14:08:13.605Z,31.70
2024-05-09T14:10:44.393Z,32.50
2024-05-09T14:13:12.519Z,33.80
2024-05-09T14:15:39.757Z,34.50
2024-05-09T14:18:10.385Z,35.70
2024-05-09T14:20:39.811Z,36.50
2024-05-09T14:23:06.756Z,36.90
2024-05-09T14:25:38.668Z,37.30
2024-05-09T14:28:08.950Z,36.60
2024-05-09T14:30:38.065Z,35.20
2024-05-09T14:33:07.550Z,33.30
2024-05-09T14:35:35.535Z,31.00
2024-05-09T14:38:02.980Z,28.60
2024-05-09T14:40:40.452Z,27.20
2024-05-09T14:43:14.982Z,26.60
2024-05-09T14:45:43.721Z,27.80
2024-05-09T14:48:12.564Z,29.50
2024-05-09T14:50:40.775Z,31.10
2024-05-09T14:53:09.747Z,32.40
2024-05-09T14:55:39.255Z,33.20
2024-05-09T14:58:07.949Z,34.30
2024-05-09T15:00:42.383Z,35.20
2024-05-09T15:03:12.539Z,34.80
2024-05-09T15:05:39.971Z,35.00
2024-05-09T15:08:08.111Z,35.40
2024-05-09T15:10:36.727Z,35.40
2024-05-09T15:13:06.602Z,34.50
2024-05-09T15:15:35.214Z,34.60
2024-05-09T15:18:03.609Z,34.80
2024-05-09T15:20:35.232Z,34.20
2024-05-09T15:23:06.633Z,33.70
2024-05-09T15:25:35.694Z,33.60
2024-05-09T15:28:04.511Z,33.80
2024-05-09T15:30:33.638Z,33.70
2024-05-09T15:33:05.108Z,33.10
2024-05-09T15:35:33.644Z,33.50
2024-05-09T15:38:02.768Z,34.10
2024-05-09T15:40:37.543Z,34.30
2024-05-09T15:43:08.979Z,34.80
2024-05-09T15:45:37.250Z,34.20
2024-05-09T15:48:05.738Z,33.50
2024-05-09T15:50:38.670Z,33.60
2024-05-09T15:53:10.288Z,33.50
2024-05-09T15:55:37.909Z,33.80
2024-05-09T15:58:06.175Z,33.60
2024-05-09T16:00:38.605Z,33.70
2024-05-09T16:03:09.875Z,33.30
2024-05-09T16:05:38.057Z,32.50
2024-05-09T16:08:06.408Z,32.50
2024-05-09T16:10:35.089Z,32.50
2024-05-09T16:13:03.510Z,31.90
2024-05-09T16:15:31.180Z,31.60
2024-05-09T16:17:58.604Z,31.30
2024-05-09T16:20:34.811Z,30.40
2024-05-09T16:23:07.574Z,29.60
2024-05-09T16:25:34.877Z,28.30
2024-05-09T16:28:08.959Z,27.00
2024-05-09T16:30:43.891Z,26.00
2024-05-09T16:33:11.966Z,25.30
2024-05-09T16:35:39.599Z,24.90
2024-05-09T16:38:06.852Z,24.60
2024-05-09T16:40:38.603Z,24.30
2024-05-09T16:43:09.206Z,24.10
2024-05-09T16:45:37.190Z,23.90
2024-05-09T16:48:04.844Z,23.80
2024-05-09T16:50:34.254Z,23.60
2024-05-09T16:53:04.329Z,23.30
2024-05-09T16:55:32.118Z,23.20
2024-05-09T16:57:59.432Z,23.10
2024-05-09T17:00:36.344Z,23.10
2024-05-09T17:03:10.290Z,23.20
2024-05-09T17:05:38.458Z,23.20
2024-05-09T17:08:08.965Z,23.30
2024-05-09T17:10:36.608Z,23.40
2024-05-09T17:13:05.540Z,23.50
2024-05-09T17:15:34.084Z,23.50
2024-05-09T17:18:02.120Z,23.40
2024-05-09T17:20:33.936Z,23.50
2024-05-09T17:23:05.074Z,23.40
2024-05-09T17:25:32.826Z,23.30
2024-05-09T17:28:06.519Z,23.20
2024-05-09T17:30:37.242Z,23.10
2024-05-09T17:33:08.231Z,22.90
2024-05-09T17:35:36.802Z,23.00
2024-05-09T17:38:05.391Z,22.90
2024-05-09T17:40:35.890Z,22.90
2024-05-09T17:43:06.336Z,22.80
2024-05-09T17:45:34.510Z,22.70
2024-05-09T17:48:02.101Z,22.70
2024-05-09T17:50:35.615Z,22.70
2024-05-09T17:53:05.552Z,22.50
2024-05-09T17:55:32.947Z,22.50
2024-05-09T17:58:00.230Z,22.40
2024-05-09T18:00:36.584Z,22.30
2024-05-09T18:03:07.919Z,22.10
2024-05-09T18:05:36.730Z,22.00
2024-05-09T18:08:04.956Z,22.00
2024-05-09T18:10:36.812Z,21.90
2024-05-09T18:13:07.219Z,21.80
2024-05-09T18:15:34.885Z,21.70
2024-05-09T18:18:02.623Z,21.50
2024-05-09T18:20:39.302Z,21.40
2024-05-09T18:23:11.020Z,21.30
2024-05-09T18:25:38.043Z,21.10
2024-05-09T18:28:06.376Z,20.90
2024-05-09T18:30:36.151Z,20.80
2024-05-09T18:33:06.474Z,20.60
2024-05-09T18:35:34.970Z,20.50
2024-05-09T18:38:02.180Z,20.40
2024-05-09T18:40:34.351Z,20.30
2024-05-09T18:43:05.622Z,20.10
2024-05-09T18:45:34.065Z,20.00
2024-05-09T18:48:01.230Z,19.80
2024-05-09T18:50:34.773Z,19.70
2024-05-09T18:53:08.908Z,19.60
2024-05-09T18:55:36.273Z,19.50
2024-05-09T18:58:04.679Z,19.40
2024-05-09T19:00:36.236Z,19.30
2024-05-09T19:03:11.824Z,19.20
2024-05-09T19:05:42.412Z,19.10
2024-05-09T19:08:10.444Z,19.00
2024-05-09T19:10:38.830Z,18.80
2024-05-09T19:13:10.903Z,18.70
2024-05-09T19:15:40.578Z,18.60
2024-05-09T19:18:08.563Z,18.50
2024-05-09T19:20:36.732Z,18.30
2024-05-09T19:23:06.475Z,18.20
2024-05-09T19:25:34.636Z,18.00
2024-05-09T19:28:03.036Z,17.90
2024-05-09T19:30:38.084Z,17.80
2024-05-09T19:33:10.200Z,17.60
2024-05-09T19:35:38.971Z,17.50
2024-05-09T19:38:06.455Z,17.40
2024-05-09T19:40:35.014Z,17.30
2024-05-09T19:43:03.516Z,17.10
2024-05-09T19:45:33.254Z,17.00
2024-05-09T19:48:01.159Z,16.90
2024-05-09T19:50:36.972Z,16.80
2024-05-09T19:53:10.249Z,16.70
2024-05-09T19:55:37.828Z,16.50
2024-05-09T19:58:07.075Z,16.50
2024-05-09T20:00:38.606Z,16.40
2024-05-09T20:03:08.428Z,16.30
2024-05-09T20:05:36.460Z,16.30
2024-05-09T20:08:04.593Z,16.20
2024-05-09T20:10:33.913Z,16.20
2024-05-09T20:13:03.346Z,16.10
2024-05-09T20:15:31.376Z,16.00
2024-05-09T20:17:58.648Z,16.00
2024-05-09T20:20:33.767Z,16.00
2024-05-09T20:23:08.810Z,15.80
2024-05-09T20:25:35.893Z,15.80
2024-05-09T20:28:03.351Z,15.70
2024-05-09T20:30:33.039Z,15.60
2024-05-09T20:33:07.380Z,15.60
2024-05-09T20:35:35.873Z,15.50
2024-05-09T20:38:03.738Z,15.50
2024-05-09T20:40:35.609Z,15.40
2024-05-09T20:43:07.249Z,15.30
2024-05-09T20:45:35.111Z,15.20
2024-05-09T20:48:02.711Z,15.20
2024-05-09T20:50:37.813Z,15.10
2024-05-09T20:53:13.119Z,15.00
2024-05-09T20:55:41.857Z,15.00
2024-05-09T20:58:09.820Z,14.90
2024-05-09T21:00:40.869Z,14.80
2024-05-09T21:03:11.819Z,14.70
2024-05-09T21:05:39.894Z,14.60
2024-05-09T21:08:07.587Z,14.50
2024-05-09T21:10:35.989Z,14.50
2024-05-09T21:13:04.024Z,14.40
2024-05-09T21:15:32.109Z,14.30
2024-05-09T21:17:59.776Z,14.20
2024-05-09T21:22:57.933Z,14.00
2024-05-09T21:25:24.987Z,14.00
2024-05-09T21:27:52.284Z,13.90
2024-05-09T21:30:31.395Z,13.90
2024-05-09T21:33:06.387Z,13.90
2024-05-09T21:35:33.658Z,13.90
2024-05-09T21:38:00.724Z,13.90
2024-05-09T21:40:34.107Z,13.90
2024-05-09T21:43:03.728Z,13.90
2024-05-09T21:45:31.009Z,13.80
2024-05-09T21:47:58.392Z,13.80
2024-05-09T21:50:32.516Z,13.80
2024-05-09T21:53:06.773Z,13.80
2024-05-09T21:55:34.436Z,13.70
2024-05-09T21:58:02.068Z,13.60
2024-05-09T22:00:35.982Z,13.60
2024-05-09T22:03:10.790Z,13.50
2024-05-09T22:05:41.933Z,13.40
2024-05-09T22:08:09.860Z,13.30
2024-05-09T22:10:37.494Z,13.20
2024-05-09T22:13:06.373Z,13.20
2024-05-09T22:15:39.856Z,13.20
2024-05-09T22:18:09.742Z,13.10
2024-05-09T22:20:46.705Z,13.10
2024-05-09T22:23:14.995Z,13.00
2024-05-09T22:25:42.710Z,13.00
2024-05-09T22:28:10.268Z,12.90
2024-05-09T22:30:39.754Z,12.80
2024-05-09T22:33:10.390Z,12.80
2024-05-09T22:35:39.280Z,12.70
2024-05-09T22:38:06.648Z,12.70
2024-05-09T22:40:46.422Z,12.70
2024-05-09T22:43:21.707Z,12.60
2024-05-09T22:45:51.147Z,12.50
2024-05-09T22:48:19.099Z,12.50
2024-05-09T22:50:46.298Z,12.40
2024-05-09T22:53:13.269Z,12.40
2024-05-09T22:55:40.310Z,12.30
2024-05-09T22:58:07.529Z,12.30
2024-05-09T23:00:36.158Z,12.30
2024-05-09T23:03:04.014Z,12.20
2024-05-09T23:05:32.844Z,12.20
2024-05-09T23:08:02.538Z,12.10
2024-05-09T23:10:36.648Z,12.10
2024-05-09T23:13:07.935Z,12.00
2024-05-09T23:15:38.766Z,11.90
2024-05-09T23:18:06.742Z,11.90
2024-05-09T23:20:38.303Z,11.80
2024-05-09T23:23:11.709Z,11.70
2024-05-09T23:25:43.232Z,11.80
2024-05-09T23:28:11.529Z,11.70
2024-05-09T23:30:40.749Z,11.70
2024-05-09T23:33:13.608Z,11.70
2024-05-09T23:35:42.108Z,11.60
2024-05-09T23:38:09.233Z,11.60
2024-05-09T23:40:39.957Z,11.50
2024-05-09T23:43:12.555Z,11.50
2024-05-09T23:45:40.807Z,11.60
2024-05-09T23:48:08.603Z,11.60
2024-05-09T23:50:38.220Z,11.60
2024-05-09T23:53:08.539Z,11.60
2024-05-09T23:55:36.864Z,11.60
2024-05-09T23:58:04.497Z,11.50
